sensor_id;sensor_type;location;lat;lon;timestamp;P1;durP1;ratioP1;P2;durP2;ratioP2
428;SDS011;201;48.758;9.290;2022-11-15T00:01:34;7.60;;;3.73;;
428;SDS011;201;48.758;9.290;2022-11-15T00:04:02;7.80;;;4.07;;
428;SDS011;201;48.758;9.290;2022-11-15T00:06:28;7.07;;;4.07;;
428;SDS011;201;48.758;9.290;2022-11-15T00:08:54;7.10;;;2.97;;
428;SDS011;201;48.758;9.290;2022-11-15T00:11:22;2.83;;;2.70;;
428;SDS011;201;48.758;9.290;2022-11-15T00:13:47;4.73;;;3.43;;
428;SDS011;201;48.758;9.290;2022-11-15T00:16:13;4.00;;;3.17;;
428;SDS011;201;48.758;9.290;2022-11-15T00:18:38;5.90;;;2.30;;
428;SDS011;201;48.758;9.290;2022-11-15T00:21:05;4.03;;;3.10;;
428;SDS011;201;48.758;9.290;2022-11-15T00:23:32;3.47;;;2.73;;
428;SDS011;201;48.758;9.290;2022-11-15T00:25:59;4.20;;;3.13;;
428;SDS011;201;48.758;9.290;2022-11-15T00:28:25;3.93;;;2.53;;
428;SDS011;201;48.758;9.290;2022-11-15T00:30:51;3.93;;;3.00;;
428;SDS011;201;48.758;9.290;2022-11-15T00:33:17;3.93;;;3.03;;
428;SDS011;201;48.758;9.290;2022-11-15T00:35:43;4.43;;;3.43;;
428;SDS011;201;48.758;9.290;2022-11-15T00:38:08;7.43;;;3.80;;
428;SDS011;201;48.758;9.290;2022-11-15T00:40:34;5.30;;;4.03;;
428;SDS011;201;48.758;9.290;2022-11-15T00:42:59;6.83;;;4.83;;
428;SDS011;201;48.758;9.290;2022-11-15T00:45:25;7.83;;;5.80;;
428;SDS011;201;48.758;9.290;2022-11-15T00:47:51;5.17;;;4.57;;
428;SDS011;201;48.758;9.290;2022-11-15T00:50:17;5.50;;;5.13;;
428;SDS011;201;48.758;9.290;2022-11-15T00:52:43;7.00;;;4.90;;
428;SDS011;201;48.758;9.290;2022-11-15T00:55:13;4.70;;;4.40;;
428;SDS011;201;48.758;9.290;2022-11-15T00:57:40;6.30;;;4.17;;
428;SDS011;201;48.758;9.290;2022-11-15T01:00:05;9.50;;;4.77;;
428;SDS011;201;48.758;9.290;2022-11-15T01:02:32;7.80;;;4.80;;
428;SDS011;201;48.758;9.290;2022-11-15T01:04:57;7.50;;;4.03;;
428;SDS011;201;48.758;9.290;2022-11-15T01:07:23;5.90;;;3.30;;
428;SDS011;201;48.758;9.290;2022-11-15T01:09:48;7.23;;;4.97;;
428;SDS011;201;48.758;9.290;2022-11-15T01:12:14;5.60;;;3.83;;
428;SDS011;201;48.758;9.290;2022-11-15T01:14:40;5.40;;;4.63;;
428;SDS011;201;48.758;9.290;2022-11-15T01:17:05;4.20;;;2.93;;
428;SDS011;201;48.758;9.290;2022-11-15T01:19:31;6.27;;;3.83;;
428;SDS011;201;48.758;9.290;2022-11-15T01:21:56;4.50;;;3.97;;
428;SDS011;201;48.758;9.290;2022-11-15T01:24:22;5.63;;;3.43;;
428;SDS011;201;48.758;9.290;2022-11-15T01:26:47;4.70;;;3.63;;
428;SDS011;201;48.758;9.290;2022-11-15T01:29:13;5.43;;;4.13;;
428;SDS011;201;48.758;9.290;2022-11-15T01:31:38;4.60;;;4.13;;
428;SDS011;201;48.758;9.290;2022-11-15T01:34:04;7.10;;;4.93;;
428;SDS011;201;48.758;9.290;2022-11-15T01:36:29;7.97;;;5.43;;
428;SDS011;201;48.758;9.290;2022-11-15T01:38:56;10.30;;;4.50;;
428;SDS011;201;48.758;9.290;2022-11-15T01:41:24;7.17;;;4.47;;
428;SDS011;201;48.758;9.290;2022-11-15T01:43:52;4.43;;;3.97;;
428;SDS011;201;48.758;9.290;2022-11-15T01:46:25;5.90;;;5.40;;
428;SDS011;201;48.758;9.290;2022-11-15T01:49:01;5.67;;;4.90;;
428;SDS011;201;48.758;9.290;2022-11-15T01:51:31;4.90;;;4.60;;
428;SDS011;201;48.758;9.290;2022-11-15T01:53:59;5.60;;;4.53;;
428;SDS011;201;48.758;9.290;2022-11-15T01:56:33;6.00;;;4.40;;
428;SDS011;201;48.758;9.290;2022-11-15T01:59:05;5.23;;;4.47;;
428;SDS011;201;48.758;9.290;2022-11-15T02:01:33;9.37;;;5.10;;
428;SDS011;201;48.758;9.290;2022-11-15T02:04:00;5.23;;;3.97;;
428;SDS011;201;48.758;9.290;2022-11-15T02:06:30;3.93;;;3.83;;
428;SDS011;201;48.758;9.290;2022-11-15T02:08:56;5.37;;;3.90;;
428;SDS011;201;48.758;9.290;2022-11-15T02:11:23;4.87;;;4.57;;
428;SDS011;201;48.758;9.290;2022-11-15T02:13:49;4.40;;;3.70;;
428;SDS011;201;48.758;9.290;2022-11-15T02:16:34;6.00;;;4.40;;
428;SDS011;201;48.758;9.290;2022-11-15T02:24:49;4.33;;;3.50;;
428;SDS011;201;48.758;9.290;2022-11-15T02:35:58;5.40;;;4.47;;
428;SDS011;201;48.758;9.290;2022-11-15T02:41:30;10.60;;;5.10;;
428;SDS011;201;48.758;9.290;2022-11-15T02:44:06;5.33;;;4.47;;
428;SDS011;201;48.758;9.290;2022-11-15T02:46:38;6.90;;;5.57;;
428;SDS011;201;48.758;9.290;2022-11-15T02:49:39;7.00;;;5.80;;
428;SDS011;201;48.758;9.290;2022-11-15T02:52:08;7.90;;;5.90;;
428;SDS011;201;48.758;9.290;2022-11-15T02:54:33;5.90;;;5.33;;
428;SDS011;201;48.758;9.290;2022-11-15T02:57:04;10.20;;;7.17;;
428;SDS011;201;48.758;9.290;2022-11-15T03:02:28;7.17;;;5.63;;
428;SDS011;201;48.758;9.290;2022-11-15T03:05:03;10.30;;;6.77;;
428;SDS011;201;48.758;9.290;2022-11-15T03:10:32;8.10;;;6.20;;
428;SDS011;201;48.758;9.290;2022-11-15T03:13:23;5.70;;;5.37;;
428;SDS011;201;48.758;9.290;2022-11-15T03:16:09;8.40;;;6.73;;
428;SDS011;201;48.758;9.290;2022-11-15T03:18:52;7.63;;;6.43;;
428;SDS011;201;48.758;9.290;2022-11-15T03:21:23;8.53;;;6.30;;
428;SDS011;201;48.758;9.290;2022-11-15T03:23:51;7.87;;;6.53;;
428;SDS011;201;48.758;9.290;2022-11-15T03:26:18;8.47;;;6.50;;
428;SDS011;201;48.758;9.290;2022-11-15T03:28:50;9.03;;;6.97;;
428;SDS011;201;48.758;9.290;2022-11-15T03:31:20;6.97;;;6.20;;
428;SDS011;201;48.758;9.290;2022-11-15T03:34:06;6.43;;;5.40;;
428;SDS011;201;48.758;9.290;2022-11-15T03:36:36;8.30;;;5.30;;
428;SDS011;201;48.758;9.290;2022-11-15T03:39:04;8.13;;;5.10;;
428;SDS011;201;48.758;9.290;2022-11-15T03:41:37;7.53;;;5.47;;
428;SDS011;201;48.758;9.290;2022-11-15T03:44:14;9.17;;;6.40;;
428;SDS011;201;48.758;9.290;2022-11-15T03:46:46;6.10;;;5.80;;
428;SDS011;201;48.758;9.290;2022-11-15T03:49:25;8.77;;;5.77;;
428;SDS011;201;48.758;9.290;2022-11-15T03:51:57;5.60;;;4.67;;
428;SDS011;201;48.758;9.290;2022-11-15T03:54:24;11.60;;;5.93;;
428;SDS011;201;48.758;9.290;2022-11-15T03:56:49;5.47;;;5.17;;
428;SDS011;201;48.758;9.290;2022-11-15T03:59:15;8.30;;;5.90;;
428;SDS011;201;48.758;9.290;2022-11-15T04:01:40;8.10;;;6.00;;
428;SDS011;201;48.758;9.290;2022-11-15T04:04:06;6.63;;;5.77;;
428;SDS011;201;48.758;9.290;2022-11-15T04:06:31;7.50;;;5.67;;
428;SDS011;201;48.758;9.290;2022-11-15T04:08:57;7.20;;;5.70;;
428;SDS011;201;48.758;9.290;2022-11-15T04:11:23;8.70;;;5.40;;
428;SDS011;201;48.758;9.290;2022-11-15T04:13:48;6.40;;;6.00;;
428;SDS011;201;48.758;9.290;2022-11-15T04:16:13;8.57;;;5.67;;
428;SDS011;201;48.758;9.290;2022-11-15T04:18:39;7.03;;;5.70;;
428;SDS011;201;48.758;9.290;2022-11-15T04:21:04;7.00;;;5.13;;
428;SDS011;201;48.758;9.290;2022-11-15T04:23:49;8.03;;;5.47;;
428;SDS011;201;48.758;9.290;2022-11-15T04:26:29;8.70;;;6.50;;
428;SDS011;201;48.758;9.290;2022-11-15T04:28:55;7.07;;;6.30;;
428;SDS011;201;48.758;9.290;2022-11-15T04:31:39;5.77;;;5.13;;
428;SDS011;201;48.758;9.290;2022-11-15T04:34:04;6.60;;;5.50;;
428;SDS011;201;48.758;9.290;2022-11-15T04:36:30;8.17;;;5.90;;
428;SDS011;201;48.758;9.290;2022-11-15T04:39:14;5.83;;;5.23;;
428;SDS011;201;48.758;9.290;2022-11-15T04:41:40;7.87;;;5.67;;
428;SDS011;201;48.758;9.290;2022-11-15T04:44:05;6.43;;;5.50;;
428;SDS011;201;48.758;9.290;2022-11-15T04:46:31;8.00;;;5.87;;
428;SDS011;201;48.758;9.290;2022-11-15T04:48:56;9.90;;;6.10;;
428;SDS011;201;48.758;9.290;2022-11-15T04:51:22;6.80;;;5.50;;
428;SDS011;201;48.758;9.290;2022-11-15T04:53:47;8.17;;;5.93;;
428;SDS011;201;48.758;9.290;2022-11-15T04:56:13;7.10;;;5.50;;
428;SDS011;201;48.758;9.290;2022-11-15T04:58:38;7.07;;;5.73;;
428;SDS011;201;48.758;9.290;2022-11-15T05:01:10;6.97;;;5.93;;
428;SDS011;201;48.758;9.290;2022-11-15T05:03:39;7.90;;;5.97;;
428;SDS011;201;48.758;9.290;2022-11-15T05:06:24;6.13;;;5.00;;
428;SDS011;201;48.758;9.290;2022-11-15T05:08:49;6.10;;;5.37;;
428;SDS011;201;48.758;9.290;2022-11-15T05:11:15;5.47;;;5.17;;
428;SDS011;201;48.758;9.290;2022-11-15T05:13:41;6.30;;;5.50;;
428;SDS011;201;48.758;9.290;2022-11-15T05:16:06;5.17;;;4.97;;
428;SDS011;201;48.758;9.290;2022-11-15T05:18:32;7.83;;;5.90;;
428;SDS011;201;48.758;9.290;2022-11-15T05:21:04;7.13;;;4.67;;
428;SDS011;201;48.758;9.290;2022-11-15T05:23:31;7.93;;;5.60;;
428;SDS011;201;48.758;9.290;2022-11-15T05:26:03;6.40;;;4.80;;
428;SDS011;201;48.758;9.290;2022-11-15T05:28:31;7.03;;;6.40;;
428;SDS011;201;48.758;9.290;2022-11-15T05:31:01;6.30;;;5.20;;
428;SDS011;201;48.758;9.290;2022-11-15T05:33:35;10.97;;;5.80;;
428;SDS011;201;48.758;9.290;2022-11-15T05:36:03;7.43;;;5.27;;
428;SDS011;201;48.758;9.290;2022-11-15T05:38:35;8.73;;;5.80;;
428;SDS011;201;48.758;9.290;2022-11-15T05:41:01;6.47;;;5.30;;
428;SDS011;201;48.758;9.290;2022-11-15T05:43:28;7.27;;;5.80;;
428;SDS011;201;48.758;9.290;2022-11-15T05:45:56;8.20;;;6.00;;
428;SDS011;201;48.758;9.290;2022-11-15T05:48:23;7.23;;;6.30;;
428;SDS011;201;48.758;9.290;2022-11-15T05:50:49;8.00;;;6.83;;
428;SDS011;201;48.758;9.290;2022-11-15T05:53:15;9.13;;;8.30;;
428;SDS011;201;48.758;9.290;2022-11-15T05:55:44;7.83;;;6.53;;
428;SDS011;201;48.758;9.290;2022-11-15T05:58:10;9.43;;;6.73;;
428;SDS011;201;48.758;9.290;2022-11-15T06:00:36;8.43;;;6.30;;
428;SDS011;201;48.758;9.290;2022-11-15T06:03:01;8.73;;;6.10;;
428;SDS011;201;48.758;9.290;2022-11-15T06:05:27;9.77;;;7.10;;
428;SDS011;201;48.758;9.290;2022-11-15T06:07:52;6.97;;;6.40;;
428;SDS011;201;48.758;9.290;2022-11-15T06:10:23;7.30;;;6.90;;
428;SDS011;201;48.758;9.290;2022-11-15T06:12:55;9.17;;;6.50;;
428;SDS011;201;48.758;9.290;2022-11-15T06:15:24;6.43;;;5.90;;
428;SDS011;201;48.758;9.290;2022-11-15T06:17:50;8.07;;;6.60;;
428;SDS011;201;48.758;9.290;2022-11-15T06:20:15;8.97;;;7.43;;
428;SDS011;201;48.758;9.290;2022-11-15T06:22:41;6.97;;;6.23;;
428;SDS011;201;48.758;9.290;2022-11-15T06:25:06;8.20;;;7.23;;
428;SDS011;201;48.758;9.290;2022-11-15T06:27:32;9.17;;;7.03;;
428;SDS011;201;48.758;9.290;2022-11-15T06:29:58;11.87;;;6.63;;
428;SDS011;201;48.758;9.290;2022-11-15T06:32:23;11.43;;;7.50;;
428;SDS011;201;48.758;9.290;2022-11-15T06:34:49;12.13;;;7.83;;
428;SDS011;201;48.758;9.290;2022-11-15T06:37:14;9.00;;;7.10;;
428;SDS011;201;48.758;9.290;2022-11-15T06:39:40;7.97;;;6.83;;
428;SDS011;201;48.758;9.290;2022-11-15T06:42:05;8.70;;;7.23;;
428;SDS011;201;48.758;9.290;2022-11-15T06:44:33;9.57;;;7.67;;
428;SDS011;201;48.758;9.290;2022-11-15T06:46:59;7.70;;;7.07;;
428;SDS011;201;48.758;9.290;2022-11-15T06:49:24;7.83;;;7.17;;
428;SDS011;201;48.758;9.290;2022-11-15T06:51:50;8.90;;;7.17;;
428;SDS011;201;48.758;9.290;2022-11-15T06:54:15;8.07;;;6.60;;
428;SDS011;201;48.758;9.290;2022-11-15T06:56:41;8.13;;;6.93;;
428;SDS011;201;48.758;9.290;2022-11-15T06:59:06;8.37;;;7.83;;
428;SDS011;201;48.758;9.290;2022-11-15T07:01:32;10.67;;;8.50;;
428;SDS011;201;48.758;9.290;2022-11-15T07:03:57;9.47;;;7.90;;
428;SDS011;201;48.758;9.290;2022-11-15T07:06:23;9.73;;;6.57;;
428;SDS011;201;48.758;9.290;2022-11-15T07:08:48;15.07;;;7.73;;
428;SDS011;201;48.758;9.290;2022-11-15T07:11:14;10.50;;;7.97;;
428;SDS011;201;48.758;9.290;2022-11-15T07:13:40;9.50;;;7.63;;
428;SDS011;201;48.758;9.290;2022-11-15T07:16:06;9.30;;;7.70;;
428;SDS011;201;48.758;9.290;2022-11-15T07:18:34;9.30;;;7.87;;
428;SDS011;201;48.758;9.290;2022-11-15T07:21:01;7.93;;;6.63;;
428;SDS011;201;48.758;9.290;2022-11-15T07:23:28;7.67;;;7.07;;
428;SDS011;201;48.758;9.290;2022-11-15T07:25:55;9.63;;;6.93;;
428;SDS011;201;48.758;9.290;2022-11-15T07:28:22;9.50;;;6.30;;
428;SDS011;201;48.758;9.290;2022-11-15T07:30:47;7.70;;;6.37;;
428;SDS011;201;48.758;9.290;2022-11-15T07:33:12;8.40;;;7.27;;
428;SDS011;201;48.758;9.290;2022-11-15T07:35:38;11.87;;;6.80;;
428;SDS011;201;48.758;9.290;2022-11-15T07:38:04;7.10;;;6.67;;
428;SDS011;201;48.758;9.290;2022-11-15T07:40:30;9.00;;;6.63;;
428;SDS011;201;48.758;9.290;2022-11-15T07:43:04;8.80;;;6.40;;
428;SDS011;201;48.758;9.290;2022-11-15T07:45:32;6.70;;;5.90;;
428;SDS011;201;48.758;9.290;2022-11-15T07:47:59;8.00;;;6.50;;
428;SDS011;201;48.758;9.290;2022-11-15T07:50:25;9.30;;;6.30;;
428;SDS011;201;48.758;9.290;2022-11-15T07:52:59;6.23;;;5.40;;
428;SDS011;201;48.758;9.290;2022-11-15T07:55:25;8.70;;;6.33;;
428;SDS011;201;48.758;9.290;2022-11-15T07:57:59;6.80;;;5.90;;
428;SDS011;201;48.758;9.290;2022-11-15T08:00:29;6.67;;;5.67;;
428;SDS011;201;48.758;9.290;2022-11-15T08:03:02;6.93;;;5.83;;
428;SDS011;201;48.758;9.290;2022-11-15T08:05:31;7.70;;;5.97;;
428;SDS011;201;48.758;9.290;2022-11-15T08:07:58;5.27;;;4.80;;
428;SDS011;201;48.758;9.290;2022-11-15T08:10:24;5.23;;;4.97;;
428;SDS011;201;48.758;9.290;2022-11-15T08:12:57;7.07;;;4.67;;
428;SDS011;201;48.758;9.290;2022-11-15T08:15:23;5.70;;;5.40;;
428;SDS011;201;48.758;9.290;2022-11-15T08:17:53;10.10;;;7.80;;
428;SDS011;201;48.758;9.290;2022-11-15T08:20:19;9.27;;;7.47;;
428;SDS011;201;48.758;9.290;2022-11-15T08:22:45;7.00;;;6.37;;
428;SDS011;201;48.758;9.290;2022-11-15T08:25:10;6.47;;;5.50;;
428;SDS011;201;48.758;9.290;2022-11-15T08:27:36;8.60;;;5.90;;
428;SDS011;201;48.758;9.290;2022-11-15T08:30:01;8.13;;;6.37;;
428;SDS011;201;48.758;9.290;2022-11-15T08:32:27;6.63;;;5.87;;
428;SDS011;201;48.758;9.290;2022-11-15T08:34:52;7.27;;;5.60;;
428;SDS011;201;48.758;9.290;2022-11-15T08:37:18;5.50;;;4.50;;
428;SDS011;201;48.758;9.290;2022-11-15T08:39:43;5.63;;;5.37;;
428;SDS011;201;48.758;9.290;2022-11-15T08:42:09;7.33;;;5.63;;
428;SDS011;201;48.758;9.290;2022-11-15T08:44:34;5.80;;;5.53;;
428;SDS011;201;48.758;9.290;2022-11-15T08:47:00;6.47;;;4.90;;
428;SDS011;201;48.758;9.290;2022-11-15T08:49:26;5.83;;;5.40;;
428;SDS011;201;48.758;9.290;2022-11-15T08:51:52;8.77;;;6.27;;
428;SDS011;201;48.758;9.290;2022-11-15T08:54:17;5.47;;;5.00;;
428;SDS011;201;48.758;9.290;2022-11-15T08:56:43;6.17;;;5.30;;
428;SDS011;201;48.758;9.290;2022-11-15T08:59:08;7.60;;;6.00;;
428;SDS011;201;48.758;9.290;2022-11-15T09:01:34;6.93;;;5.70;;
428;SDS011;201;48.758;9.290;2022-11-15T09:03:59;7.93;;;6.00;;
428;SDS011;201;48.758;9.290;2022-11-15T09:06:25;5.13;;;4.53;;
428;SDS011;201;48.758;9.290;2022-11-15T09:08:50;6.00;;;5.30;;
428;SDS011;201;48.758;9.290;2022-11-15T09:11:16;13.63;;;5.40;;
428;SDS011;201;48.758;9.290;2022-11-15T09:13:45;9.03;;;5.50;;
428;SDS011;201;48.758;9.290;2022-11-15T09:16:10;9.30;;;5.97;;
428;SDS011;201;48.758;9.290;2022-11-15T09:18:37;5.67;;;5.30;;
428;SDS011;201;48.758;9.290;2022-11-15T09:21:03;9.40;;;5.40;;
428;SDS011;201;48.758;9.290;2022-11-15T09:23:29;5.93;;;5.27;;
428;SDS011;201;48.758;9.290;2022-11-15T09:26:01;7.67;;;5.97;;
428;SDS011;201;48.758;9.290;2022-11-15T09:28:28;7.87;;;5.80;;
428;SDS011;201;48.758;9.290;2022-11-15T09:30:55;6.50;;;5.70;;
428;SDS011;201;48.758;9.290;2022-11-15T09:33:22;10.10;;;5.70;;
428;SDS011;201;48.758;9.290;2022-11-15T09:35:48;5.50;;;4.87;;
428;SDS011;201;48.758;9.290;2022-11-15T09:38:13;6.20;;;5.80;;
428;SDS011;201;48.758;9.290;2022-11-15T09:40:39;6.53;;;5.77;;
428;SDS011;201;48.758;9.290;2022-11-15T09:43:24;6.60;;;5.80;;
428;SDS011;201;48.758;9.290;2022-11-15T09:46:15;11.00;;;6.13;;
428;SDS011;201;48.758;9.290;2022-11-15T09:48:56;6.60;;;5.70;;
428;SDS011;201;48.758;9.290;2022-11-15T09:51:29;8.40;;;5.90;;
428;SDS011;201;48.758;9.290;2022-11-15T09:53:59;10.63;;;5.80;;
428;SDS011;201;48.758;9.290;2022-11-15T09:56:38;9.23;;;6.50;;
428;SDS011;201;48.758;9.290;2022-11-15T10:04:40;11.53;;;7.03;;
428;SDS011;201;48.758;9.290;2022-11-15T10:12:18;9.23;;;6.70;;
428;SDS011;201;48.758;9.290;2022-11-15T10:14:45;7.87;;;6.27;;
428;SDS011;201;48.758;9.290;2022-11-15T10:27:43;7.63;;;6.20;;
428;SDS011;201;48.758;9.290;2022-11-15T10:30:13;7.17;;;5.17;;
428;SDS011;201;48.758;9.290;2022-11-15T10:32:41;6.37;;;5.20;;
428;SDS011;201;48.758;9.290;2022-11-15T10:38:08;7.70;;;5.10;;
428;SDS011;201;48.758;9.290;2022-11-15T10:40:35;10.60;;;4.60;;
428;SDS011;201;48.758;9.290;2022-11-15T10:43:15;6.63;;;4.57;;
428;SDS011;201;48.758;9.290;2022-11-15T10:45:42;7.37;;;5.60;;
428;SDS011;201;48.758;9.290;2022-11-15T10:50:37;5.60;;;4.60;;
428;SDS011;201;48.758;9.290;2022-11-15T10:53:10;10.40;;;5.70;;
428;SDS011;201;48.758;9.290;2022-11-15T10:55:47;7.60;;;5.87;;
428;SDS011;201;48.758;9.290;2022-11-15T10:58:22;8.87;;;5.17;;
428;SDS011;201;48.758;9.290;2022-11-15T11:01:13;9.13;;;6.10;;
428;SDS011;201;48.758;9.290;2022-11-15T11:03:42;6.27;;;4.93;;
428;SDS011;201;48.758;9.290;2022-11-15T11:06:13;6.97;;;5.50;;
428;SDS011;201;48.758;9.290;2022-11-15T11:08:40;5.80;;;4.93;;
428;SDS011;201;48.758;9.290;2022-11-15T11:11:22;6.63;;;4.77;;
428;SDS011;201;48.758;9.290;2022-11-15T11:13:48;5.77;;;5.20;;
428;SDS011;201;48.758;9.290;2022-11-15T11:18:52;6.70;;;4.90;;
428;SDS011;201;48.758;9.290;2022-11-15T11:22:17;6.37;;;4.77;;
428;SDS011;201;48.758;9.290;2022-11-15T11:24:56;6.13;;;5.30;;
428;SDS011;201;48.758;9.290;2022-11-15T11:44:10;4.90;;;4.60;;
428;SDS011;201;48.758;9.290;2022-11-15T11:47:01;6.97;;;5.50;;
428;SDS011;201;48.758;9.290;2022-11-15T11:49:53;7.33;;;4.57;;
428;SDS011;201;48.758;9.290;2022-11-15T11:55:13;5.70;;;3.77;;
428;SDS011;201;48.758;9.290;2022-11-15T12:00:21;3.80;;;3.43;;
428;SDS011;201;48.758;9.290;2022-11-15T12:05:35;3.20;;;3.00;;
428;SDS011;201;48.758;9.290;2022-11-15T12:08:23;5.43;;;3.30;;
428;SDS011;201;48.758;9.290;2022-11-15T12:10:53;4.40;;;3.63;;
428;SDS011;201;48.758;9.290;2022-11-15T12:13:26;4.40;;;3.20;;
428;SDS011;201;48.758;9.290;2022-11-15T12:16:05;4.73;;;3.67;;
428;SDS011;201;48.758;9.290;2022-11-15T12:18:47;6.30;;;3.67;;
428;SDS011;201;48.758;9.290;2022-11-15T12:21:18;6.90;;;4.60;;
428;SDS011;201;48.758;9.290;2022-11-15T12:23:50;4.37;;;4.07;;
428;SDS011;201;48.758;9.290;2022-11-15T12:26:21;4.20;;;3.70;;
428;SDS011;201;48.758;9.290;2022-11-15T12:28:52;6.33;;;4.50;;
428;SDS011;201;48.758;9.290;2022-11-15T12:34:00;6.70;;;4.87;;
428;SDS011;201;48.758;9.290;2022-11-15T12:39:06;7.00;;;4.90;;
428;SDS011;201;48.758;9.290;2022-11-15T12:41:43;6.70;;;3.93;;
428;SDS011;201;48.758;9.290;2022-11-15T12:47:02;4.27;;;4.00;;
428;SDS011;201;48.758;9.290;2022-11-15T12:49:47;6.10;;;4.90;;
428;SDS011;201;48.758;9.290;2022-11-15T12:52:13;5.40;;;4.50;;
428;SDS011;201;48.758;9.290;2022-11-15T13:02:43;7.03;;;5.17;;
428;SDS011;201;48.758;9.290;2022-11-15T13:28:30;9.93;;;5.90;;
428;SDS011;201;48.758;9.290;2022-11-15T13:33:44;8.70;;;5.80;;
428;SDS011;201;48.758;9.290;2022-11-15T13:36:14;8.93;;;6.10;;
428;SDS011;201;48.758;9.290;2022-11-15T13:38:58;9.43;;;5.87;;
428;SDS011;201;48.758;9.290;2022-11-15T13:41:37;9.93;;;5.60;;
428;SDS011;201;48.758;9.290;2022-11-15T13:44:18;11.53;;;6.27;;
428;SDS011;201;48.758;9.290;2022-11-15T13:49:40;7.10;;;5.20;;
428;SDS011;201;48.758;9.290;2022-11-15T13:52:07;8.40;;;6.40;;
428;SDS011;201;48.758;9.290;2022-11-15T13:54:43;7.50;;;6.03;;
428;SDS011;201;48.758;9.290;2022-11-15T13:57:14;8.97;;;6.20;;
428;SDS011;201;48.758;9.290;2022-11-15T13:59:51;9.47;;;6.20;;
428;SDS011;201;48.758;9.290;2022-11-15T14:02:30;9.10;;;7.13;;
428;SDS011;201;48.758;9.290;2022-11-15T14:07:28;7.80;;;6.50;;
428;SDS011;201;48.758;9.290;2022-11-15T14:09:55;8.87;;;6.60;;
428;SDS011;201;48.758;9.290;2022-11-15T14:12:22;7.73;;;5.77;;
428;SDS011;201;48.758;9.290;2022-11-15T14:14:54;7.70;;;6.93;;
428;SDS011;201;48.758;9.290;2022-11-15T14:19:56;6.93;;;5.83;;
428;SDS011;201;48.758;9.290;2022-11-15T14:22:23;9.03;;;6.30;;
428;SDS011;201;48.758;9.290;2022-11-15T14:30:39;6.83;;;5.30;;
428;SDS011;201;48.758;9.290;2022-11-15T14:33:17;8.90;;;5.83;;
428;SDS011;201;48.758;9.290;2022-11-15T14:36:12;7.80;;;6.10;;
428;SDS011;201;48.758;9.290;2022-11-15T14:38:39;7.90;;;5.80;;
428;SDS011;201;48.758;9.290;2022-11-15T14:41:28;7.83;;;6.10;;
428;SDS011;201;48.758;9.290;2022-11-15T14:43:57;11.33;;;6.90;;
428;SDS011;201;48.758;9.290;2022-11-15T14:46:22;10.60;;;7.13;;
428;SDS011;201;48.758;9.290;2022-11-15T14:48:48;11.50;;;7.03;;
428;SDS011;201;48.758;9.290;2022-11-15T14:51:15;8.20;;;5.93;;
428;SDS011;201;48.758;9.290;2022-11-15T14:53:42;8.10;;;5.20;;
428;SDS011;201;48.758;9.290;2022-11-15T14:56:09;12.13;;;5.40;;
428;SDS011;201;48.758;9.290;2022-11-15T14:58:34;9.07;;;6.63;;
428;SDS011;201;48.758;9.290;2022-11-15T15:01:01;8.60;;;7.30;;
428;SDS011;201;48.758;9.290;2022-11-15T15:03:45;6.80;;;5.23;;
428;SDS011;201;48.758;9.290;2022-11-15T15:06:10;6.80;;;5.60;;
428;SDS011;201;48.758;9.290;2022-11-15T15:08:37;6.93;;;5.77;;
428;SDS011;201;48.758;9.290;2022-11-15T15:11:06;11.00;;;7.73;;
428;SDS011;201;48.758;9.290;2022-11-15T15:13:36;9.30;;;6.00;;
428;SDS011;201;48.758;9.290;2022-11-15T15:16:02;8.43;;;7.67;;
428;SDS011;201;48.758;9.290;2022-11-15T15:18:27;7.27;;;4.83;;
428;SDS011;201;48.758;9.290;2022-11-15T15:20:54;8.03;;;4.90;;
428;SDS011;201;48.758;9.290;2022-11-15T15:23:24;11.93;;;6.77;;
428;SDS011;201;48.758;9.290;2022-11-15T15:25:54;9.23;;;6.00;;
428;SDS011;201;48.758;9.290;2022-11-15T15:28:19;6.43;;;5.83;;
428;SDS011;201;48.758;9.290;2022-11-15T15:30:45;12.60;;;6.23;;
428;SDS011;201;48.758;9.290;2022-11-15T15:33:10;13.30;;;7.80;;
428;SDS011;201;48.758;9.290;2022-11-15T15:35:36;6.73;;;4.90;;
428;SDS011;201;48.758;9.290;2022-11-15T15:38:01;6.90;;;6.20;;
428;SDS011;201;48.758;9.290;2022-11-15T15:40:28;10.77;;;6.77;;
428;SDS011;201;48.758;9.290;2022-11-15T15:42:55;15.77;;;7.57;;
428;SDS011;201;48.758;9.290;2022-11-15T15:45:21;10.33;;;7.00;;
428;SDS011;201;48.758;9.290;2022-11-15T15:47:46;10.43;;;7.53;;
428;SDS011;201;48.758;9.290;2022-11-15T15:50:24;9.10;;;7.10;;
428;SDS011;201;48.758;9.290;2022-11-15T15:52:52;7.83;;;6.50;;
428;SDS011;201;48.758;9.290;2022-11-15T15:55:19;8.47;;;6.40;;
428;SDS011;201;48.758;9.290;2022-11-15T15:57:45;14.67;;;7.80;;
428;SDS011;201;48.758;9.290;2022-11-15T16:00:11;11.60;;;6.53;;
428;SDS011;201;48.758;9.290;2022-11-15T16:02:38;11.87;;;7.03;;
428;SDS011;201;48.758;9.290;2022-11-15T16:05:04;11.07;;;6.93;;
428;SDS011;201;48.758;9.290;2022-11-15T16:07:30;10.27;;;7.70;;
428;SDS011;201;48.758;9.290;2022-11-15T16:09:57;6.63;;;5.97;;
428;SDS011;201;48.758;9.290;2022-11-15T16:12:29;9.07;;;6.23;;
428;SDS011;201;48.758;9.290;2022-11-15T16:14:55;9.20;;;6.40;;
428;SDS011;201;48.758;9.290;2022-11-15T16:17:22;11.73;;;6.20;;
428;SDS011;201;48.758;9.290;2022-11-15T16:19:50;10.40;;;6.93;;
428;SDS011;201;48.758;9.290;2022-11-15T16:22:15;10.63;;;6.77;;
428;SDS011;201;48.758;9.290;2022-11-15T16:24:41;14.47;;;6.43;;
428;SDS011;201;48.758;9.290;2022-11-15T16:27:11;9.60;;;6.43;;
428;SDS011;201;48.758;9.290;2022-11-15T16:29:39;9.43;;;6.03;;
428;SDS011;201;48.758;9.290;2022-11-15T16:32:04;9.70;;;7.03;;
428;SDS011;201;48.758;9.290;2022-11-15T16:34:30;8.77;;;6.70;;
428;SDS011;201;48.758;9.290;2022-11-15T16:36:55;8.57;;;7.50;;
428;SDS011;201;48.758;9.290;2022-11-15T16:39:21;7.43;;;6.57;;
428;SDS011;201;48.758;9.290;2022-11-15T16:41:47;7.57;;;6.57;;
428;SDS011;201;48.758;9.290;2022-11-15T16:44:13;8.30;;;6.00;;
428;SDS011;201;48.758;9.290;2022-11-15T16:46:40;10.33;;;6.67;;
428;SDS011;201;48.758;9.290;2022-11-15T16:49:13;7.43;;;6.30;;
428;SDS011;201;48.758;9.290;2022-11-15T16:51:40;10.93;;;6.93;;
428;SDS011;201;48.758;9.290;2022-11-15T16:54:08;10.50;;;6.87;;
428;SDS011;201;48.758;9.290;2022-11-15T16:56:34;14.17;;;6.90;;
428;SDS011;201;48.758;9.290;2022-11-15T16:59:00;8.40;;;6.30;;
428;SDS011;201;48.758;9.290;2022-11-15T17:01:27;9.77;;;6.80;;
428;SDS011;201;48.758;9.290;2022-11-15T17:03:57;9.13;;;6.30;;
428;SDS011;201;48.758;9.290;2022-11-15T17:06:23;12.70;;;6.50;;
428;SDS011;201;48.758;9.290;2022-11-15T17:08:50;10.97;;;5.90;;
428;SDS011;201;48.758;9.290;2022-11-15T17:11:17;8.40;;;6.43;;
428;SDS011;201;48.758;9.290;2022-11-15T17:13:45;8.20;;;5.47;;
428;SDS011;201;48.758;9.290;2022-11-15T17:16:13;9.70;;;6.03;;
428;SDS011;201;48.758;9.290;2022-11-15T17:18:40;7.03;;;5.70;;
428;SDS011;201;48.758;9.290;2022-11-15T17:21:09;5.27;;;4.50;;
428;SDS011;201;48.758;9.290;2022-11-15T17:23:40;7.30;;;4.67;;
428;SDS011;201;48.758;9.290;2022-11-15T17:26:06;6.37;;;4.80;;
428;SDS011;201;48.758;9.290;2022-11-15T17:28:35;6.53;;;4.30;;
428;SDS011;201;48.758;9.290;2022-11-15T17:31:01;7.03;;;4.60;;
428;SDS011;201;48.758;9.290;2022-11-15T17:33:31;6.23;;;3.97;;
428;SDS011;201;48.758;9.290;2022-11-15T17:35:57;6.40;;;4.57;;
428;SDS011;201;48.758;9.290;2022-11-15T17:38:24;4.73;;;4.43;;
428;SDS011;201;48.758;9.290;2022-11-15T17:41:03;8.90;;;6.10;;
428;SDS011;201;48.758;9.290;2022-11-15T17:43:36;11.37;;;6.70;;
428;SDS011;201;48.758;9.290;2022-11-15T17:46:06;10.70;;;6.67;;
428;SDS011;201;48.758;9.290;2022-11-15T17:48:35;12.00;;;6.70;;
428;SDS011;201;48.758;9.290;2022-11-15T17:51:01;8.43;;;6.07;;
428;SDS011;201;48.758;9.290;2022-11-15T17:53:38;8.40;;;6.10;;
428;SDS011;201;48.758;9.290;2022-11-15T17:56:06;14.17;;;6.90;;
428;SDS011;201;48.758;9.290;2022-11-15T17:58:33;6.53;;;5.97;;
428;SDS011;201;48.758;9.290;2022-11-15T18:03:43;9.73;;;6.33;;
428;SDS011;201;48.758;9.290;2022-11-15T18:06:08;7.20;;;5.10;;
428;SDS011;201;48.758;9.290;2022-11-15T18:08:35;6.00;;;5.27;;
428;SDS011;201;48.758;9.290;2022-11-15T18:13:32;7.30;;;5.90;;